Time;durP1;ratioP1;P1;durP2;ratioP2;P2;SDS_P1;SDS_P2;PMS_P1;PMS_P2;Temp;Humidity;BMP_temperature;BMP_pressure;BME280_temperature;BME280_humidity;BME280_pressure;Samples;Min_cycle;Max_cycle;Signal;HPM_P1;HPM_P2
2023/03/17 00:00:20;;;;;;;;;;;;;;;;;;1036195;28;4064;-53
2023/03/17 00:01:11;;;;;;;;;;;;;;;;;;1036775;28;1892;-55
2023/03/17 00:01:43;;;;;;;;;;;;;;;;;;1036920;28;3882;-51
2023/03/17 00:02:13;;;;;;;;;;;;;;;;;;1038268;28;1938;-55
2023/03/17 00:02:44;;;;;;;;;;;;;;;;;;1038842;28;4101;-53
2023/03/17 00:03:20;;;;;;;;;;;;;;;;;;1038674;28;1843;-53
2023/03/17 00:03:51;;;;;;;;;;;;;;;;;;1036587;28;3810;-55
2023/03/17 00:04:23;;;;;;;;;;;;;;;;;;1037151;28;4042;-55
2023/03/17 00:04:53;;;;;;;;;;;;;;;;;;1039168;28;1714;-52
2023/03/17 00:05:24;;;;;;;;;;;;;;;;;;1038189;28;4024;-52
2023/03/17 00:05:56;;;;;;;;;;;;;;;;;;1038623;28;1771;-55
2023/03/17 00:06:28;;;;;;;;;;;;;;;;;;1037900;28;4578;-54
2023/03/17 00:06:58;;;;;;;;;;;;;;;;;;1036713;28;2813;-51
2023/03/17 00:07:29;;;;;;;;;;;;;;;;;;1038122;28;3849;-54
2023/03/17 00:08:02;;;;;;;;;;;;;;;;;;1037371;28;1793;-51
2023/03/17 00:08:34;;;;;;;;;;;;;;;;;;1037083;28;3794;-53
2023/03/17 00:09:06;;;;;;;;;;;;;;;;;;1037760;28;1827;-54
2023/03/17 00:09:37;;;;;;;;;;;;;;;;;;1036395;28;4094;-54
2023/03/17 00:10:16;;;;;;;;;;;;;;;;;;1038436;28;3028;-55
2023/03/17 00:10:46;;;;;;;;;;;;;;;;;;1037498;28;3977;-52
2023/03/17 00:11:16;;;;;;;;;;;;;;;;;;1036600;28;3056;-54
2023/03/17 00:11:47;;;;;;;;;;;;;;;;;;1036098;28;3934;-54
2023/03/17 00:12:18;;;;;;;;;;;;;;;;;;1039736;28;3799;-53
2023/03/17 00:12:49;;;;;;;;;;;;;;;;;;1035606;28;2854;-55
2023/03/17 00:13:20;;;;;;;;;;;;;;;;;;1036342;28;3952;-54
2023/03/17 00:13:50;;;;;;;;;;;;;;;;;;1038098;28;1772;-53
2023/03/17 00:14:20;;;;;;;;;;;;;;;;;;1038264;28;4097;-53
2023/03/17 00:14:51;;;;;;;;;;;;;;;;;;1038216;28;1755;-55
2023/03/17 00:15:22;;;;;;;;;;;;;;;;;;1037446;28;3859;-53
2023/03/17 00:15:57;;;;;;;;;;;;;;;;;;1039558;28;1777;-53
2023/03/17 00:16:29;;;;;;;;;;;;;;;;;;1038521;28;4053;-55
2023/03/17 00:16:59;;;;;;;;;;;;;;;;;;1038551;28;1977;-56
2023/03/17 00:17:30;;;;;;;;;;;;;;;;;;1037331;28;3919;-54
2023/03/17 00:18:00;;;;;;;;;;;;;;;;;;1038575;28;1850;-51
2023/03/17 00:18:32;;;;;;;;;;;;;;;;;;1037970;28;4070;-53
2023/03/17 00:19:02;;;;;;;;;;;;;;;;;;1037927;28;2874;-51
2023/03/17 00:19:34;;;;;;;;;;;;;;;;;;1036228;28;4076;-53
2023/03/17 00:20:04;;;;;;;;;;;;;;;;;;1037895;28;2616;-55
2023/03/17 00:20:35;;;;;;;;;;;;;;;;;;1036032;28;4065;-54
2023/03/17 00:21:08;;;;;;;;;;;;;;;;;;1039367;28;2532;-53
2023/03/17 00:21:39;;;;;;;;;;;;;;;;;;1035342;28;4108;-54
2023/03/17 00:22:14;;;;;;;;;;;;;;;;;;1034530;28;2715;-53
2023/03/17 00:22:44;;;;;;;;;;;;;;;;;;1038202;28;4098;-53
2023/03/17 00:23:16;;;;;;;;;;;;;;;;;;1039200;28;1764;-52
2023/03/17 00:23:48;;;;;;;;;;;;;;;;;;1037027;28;4087;-55
2023/03/17 00:24:19;;;;;;;;;;;;;;;;;;1038291;28;4267;-52
2023/03/17 00:24:50;;;;;;;;;;;;;;;;;;1038453;28;2392;-53
2023/03/17 00:25:22;;;;;;;;;;;;;;;;;;1035626;28;3799;-52
2023/03/17 00:25:53;;;;;;;;;;;;;;;;;;1038823;28;2043;-55
2023/03/17 00:26:24;;;;;;;;;;;;;;;;;;1038150;28;4060;-52
2023/03/17 00:26:54;;;;;;;;;;;;;;;;;;1038232;28;1842;-52
2023/03/17 00:27:24;;;;;;;;;;;;;;;;;;1035727;28;3989;-55
2023/03/17 00:27:57;;;;;;;;;;;;;;;;;;1036074;28;2708;-55
2023/03/17 00:28:27;;;;;;;;;;;;;;;;;;1038792;28;4119;-53
2023/03/17 00:28:57;;;;;;;;;;;;;;;;;;1037970;28;2244;-55
2023/03/17 00:29:27;;;;;;;;;;;;;;;;;;1037937;28;4052;-55
2023/03/17 00:29:58;;;;;;;;;;;;;;;;;;1037025;28;2804;-54
2023/03/17 00:30:28;;;;;;;;;;;;;;;;;;1035714;28;3902;-54
2023/03/17 00:30:59;;;;;;;;;;;;;;;;;;1038990;28;1668;-51
2023/03/17 00:31:30;;;;;;;;;;;;;;;;;;1037518;28;3875;-52
2023/03/17 00:32:01;;;;;;;;;;;;;;;;;;1037833;28;2526;-53
2023/03/17 00:32:31;;;;;;;;;;;;;;;;;;1038748;28;4046;-54
2023/03/17 00:33:03;;;;;;;;;;;;;;;;;;1035259;28;2286;-55
2023/03/17 00:33:35;;;;;;;;;;;;;;;;;;1037676;28;4009;-53
2023/03/17 00:34:09;;;;;;;;;;;;;;;;;;1037476;28;1767;-55
2023/03/17 00:34:39;;;;;;;;;;;;;;;;;;1038815;28;3864;-54
2023/03/17 00:35:14;;;;;;;;;;;;;;;;;;1036083;28;1859;-53
2023/03/17 00:35:45;;;;;;;;;;;;;;;;;;1037959;28;3830;-56
2023/03/17 00:36:17;;;;;;;;;;;;;;;;;;1036761;28;2778;-54
2023/03/17 00:36:49;;;;;;;;;;;;;;;;;;1039267;28;3823;-52
2023/03/17 00:37:19;;;;;;;;;;;;;;;;;;1035921;28;3952;-52
2023/03/17 00:37:51;;;;;;;;;;;;;;;;;;1038645;28;1547;-54
2023/03/17 00:38:23;;;;;;;;;;;;;;;;;;1035471;28;4066;-52
2023/03/17 00:38:53;;;;;;;;;;;;;;;;;;1037310;28;2807;-55
2023/03/17 00:39:24;;;;;;;;;;;;;;;;;;1037627;28;4048;-53
2023/03/17 00:39:55;;;;;;;;;;;;;;;;;;1035978;28;3228;-54
2023/03/17 00:40:29;;;;;;;;;;;;;;;;;;1037117;28;4073;-53
2023/03/17 00:41:00;;;;;;;;;;;;;;;;;;1038363;28;1962;-54
2023/03/17 00:41:30;;;;;;;;;;;;;;;;;;1037686;28;4043;-53
2023/03/17 00:42:00;;;;;;;;;;;;;;;;;;1037041;28;1737;-51
2023/03/17 00:42:31;;;;;;;;;;;;;;;;;;1038178;28;4130;-55
2023/03/17 00:43:02;;;;;;;;;;;;;;;;;;1037987;28;3071;-53
2023/03/17 00:43:32;;;;;;;;;;;;;;;;;;1038108;28;3779;-53
2023/03/17 00:44:03;;;;;;;;;;;;;;;;;;1037412;28;3091;-55
2023/03/17 00:44:34;;;;;;;;;;;;;;;;;;1037182;28;4063;-54
2023/03/17 00:45:04;;;;;;;;;;;;;;;;;;1038213;28;1712;-51
2023/03/17 00:45:35;;;;;;;;;;;;;;;;;;1038457;28;3860;-55
2023/03/17 00:46:13;;;;;;;;;;;;;;;;;;1037126;28;1997;-53
2023/03/17 00:46:45;;;;;;;;;;;;;;;;;;1038199;28;3955;-55
2023/03/17 00:47:15;;;;;;;;;;;;;;;;;;1036367;28;1902;-52
2023/03/17 00:47:46;;;;;;;;;;;;;;;;;;1038365;28;4008;-55
2023/03/17 00:48:18;;;;;;;;;;;;;;;;;;1036216;28;1817;-53
2023/03/17 00:48:48;;;;;;;;;;;;;;;;;;1038679;28;4024;-53
2023/03/17 00:49:20;;;;;;;;;;;;;;;;;;1034326;28;3941;-52
2023/03/17 00:49:51;;;;;;;;;;;;;;;;;;1036717;28;2797;-54
2023/03/17 00:50:23;;;;;;;;;;;;;;;;;;1035960;28;3913;-54
2023/03/17 00:50:54;;;;;;;;;;;;;;;;;;1037969;28;2401;-55
2023/03/17 00:51:24;;;;;;;;;;;;;;;;;;1038272;28;4088;-53
2023/03/17 00:51:54;;;;;;;;;;;;;;;;;;1038819;28;1795;-55
2023/03/17 00:52:25;;;;;;;;;;;;;;;;;;1037677;28;4042;-53
2023/03/17 00:52:56;;;;;;;;;;;;;;;;;;1039129;28;1741;-54
2023/03/17 00:53:27;;;;;;;;;;;;;;;;;;1038861;28;4032;-53
2023/03/17 00:53:57;;;;;;;;;;;;;;;;;;1037728;28;1895;-54
2023/03/17 00:54:27;;;;;;;;;;;;;;;;;;1036277;28;4095;-52
2023/03/17 00:54:58;;;;;;;;;;;;;;;;;;1037329;28;2807;-55
2023/03/17 00:55:28;;;;;;;;;;;;;;;;;;1037908;28;3787;-55
2023/03/17 00:55:58;;;;;;;;;;;;;;;;;;1037554;28;1629;-55
2023/03/17 00:56:28;;;;;;;;;;;;;;;;;;1038303;28;4392;-54
2023/03/17 00:56:59;;;;;;;;;;;;;;;;;;1038387;28;1787;-52
2023/03/17 00:57:29;;;;;;;;;;;;;;;;;;1038099;28;3916;-54
2023/03/17 00:58:00;;;;;;;;;;;;;;;;;;1036717;28;1859;-54
2023/03/17 00:58:31;;;;;;;;;;;;;;;;;;1037371;28;3799;-54
2023/03/17 00:59:02;;;;;;;;;;;;;;;;;;1037812;28;1904;-55
2023/03/17 00:59:36;;;;;;;;;;;;;;;;;;1038073;28;4233;-53
2023/03/17 01:00:33;;;;;;;;;;;;;;;;;;1038223;28;1782;-54
2023/03/17 01:01:03;;;;;;;;;;;;;;;;;;1036386;28;4009;-52
2023/03/17 01:01:33;;;;;;;;;;;;;;;;;;1038714;28;4045;-54
2023/03/17 01:02:04;;;;;;;;;;;;;;;;;;1038190;28;1711;-54
2023/03/17 01:02:34;;;;;;;;;;;;;;;;;;1037480;28;4057;-53
2023/03/17 01:03:08;;;;;;;;;;;;;;;;;;1039326;28;1633;-54
2023/03/17 01:03:38;;;;;;;;;;;;;;;;;;1037394;28;3876;-51
2023/03/17 01:04:09;;;;;;;;;;;;;;;;;;1038379;28;1800;-54
2023/03/17 01:04:40;;;;;;;;;;;;;;;;;;1037194;28;3874;-56
2023/03/17 01:05:11;;;;;;;;;;;;;;;;;;1038941;28;1719;-55
2023/03/17 01:05:42;;;;;;;;;;;;;;;;;;1035982;28;3984;-52
2023/03/17 01:06:13;;;;;;;;;;;;;;;;;;1038629;28;1554;-53
2023/03/17 01:06:43;;;;;;;;;;;;;;;;;;1037315;28;3859;-51
2023/03/17 01:07:14;;;;;;;;;;;;;;;;;;1037364;28;2630;-52
2023/03/17 01:07:51;;;;;;;;;;;;;;;;;;1033793;28;3988;-56
2023/03/17 01:08:22;;;;;;;;;;;;;;;;;;1037558;28;4137;-53
2023/03/17 01:08:54;;;;;;;;;;;;;;;;;;1035520;28;3250;-54
2023/03/17 01:09:25;;;;;;;;;;;;;;;;;;1036213;28;4047;-55
2023/03/17 01:09:55;;;;;;;;;;;;;;;;;;1036595;28;2655;-56
2023/03/17 01:10:26;;;;;;;;;;;;;;;;;;1037074;28;4037;-53
2023/03/17 01:10:56;;;;;;;;;;;;;;;;;;1035894;28;2758;-54
2023/03/17 01:11:27;;;;;;;;;;;;;;;;;;1038691;28;3793;-53
2023/03/17 01:11:57;;;;;;;;;;;;;;;;;;1037980;28;1744;-53
2023/03/17 01:12:28;;;;;;;;;;;;;;;;;;1035533;28;3843;-54
2023/03/17 01:12:58;;;;;;;;;;;;;;;;;;1037663;28;2794;-56
2023/03/17 01:13:28;;;;;;;;;;;;;;;;;;1037480;28;4020;-54
2023/03/17 01:13:59;;;;;;;;;;;;;;;;;;1037216;28;1563;-55
2023/03/17 01:14:29;;;;;;;;;;;;;;;;;;1036094;28;3837;-54
2023/03/17 01:14:59;;;;;;;;;;;;;;;;;;1034910;28;2873;-54
2023/03/17 01:15:30;;;;;;;;;;;;;;;;;;1034884;28;3806;-54
2023/03/17 01:16:01;;;;;;;;;;;;;;;;;;1035217;28;2671;-54
2023/03/17 01:16:31;;;;;;;;;;;;;;;;;;1033013;28;3888;-54
2023/03/17 01:17:02;;;;;;;;;;;;;;;;;;1039020;28;2875;-54
2023/03/17 01:17:32;;;;;;;;;;;;;;;;;;1035604;28;3880;-55
2023/03/17 01:18:02;;;;;;;;;;;;;;;;;;1036009;28;2890;-52
2023/03/17 01:18:33;;;;;;;;;;;;;;;;;;1033098;28;3972;-55
2023/03/17 01:19:03;;;;;;;;;;;;;;;;;;1036540;28;2664;-53
2023/03/17 01:19:34;;;;;;;;;;;;;;;;;;1037006;28;4085;-53
2023/03/17 01:20:05;;;;;;;;;;;;;;;;;;1037686;28;2485;-55
2023/03/17 01:20:35;;;;;;;;;;;;;;;;;;1036659;28;4046;-56
2023/03/17 01:21:06;;;;;;;;;;;;;;;;;;1038576;28;3367;-55
2023/03/17 01:21:36;;;;;;;;;;;;;;;;;;1034899;28;4195;-54
2023/03/17 01:22:07;;;;;;;;;;;;;;;;;;1036063;28;2712;-54
2023/03/17 01:22:38;;;;;;;;;;;;;;;;;;1038184;28;3875;-53
2023/03/17 01:23:09;;;;;;;;;;;;;;;;;;1034242;28;1908;-55
2023/03/17 01:23:39;;;;;;;;;;;;;;;;;;1035506;28;3994;-55
2023/03/17 01:24:09;;;;;;;;;;;;;;;;;;1036205;28;3086;-55
2023/03/17 01:24:39;;;;;;;;;;;;;;;;;;1037447;28;4087;-54
2023/03/17 01:25:10;;;;;;;;;;;;;;;;;;1036141;28;2724;-54
2023/03/17 01:25:42;;;;;;;;;;;;;;;;;;1037531;28;3916;-55
2023/03/17 01:26:12;;;;;;;;;;;;;;;;;;1038188;28;1843;-53
2023/03/17 01:26:43;;;;;;;;;;;;;;;;;;1036512;28;4054;-55
2023/03/17 01:27:13;;;;;;;;;;;;;;;;;;1034849;28;2889;-53
2023/03/17 01:27:45;;;;;;;;;;;;;;;;;;1031509;28;4079;-54
2023/03/17 01:28:17;;;;;;;;;;;;;;;;;;1038603;28;1788;-52
2023/03/17 01:28:47;;;;;;;;;;;;;;;;;;1032457;28;3923;-52
2023/03/17 01:29:18;;;;;;;;;;;;;;;;;;1032558;28;4209;-52
2023/03/17 01:29:52;;;;;;;;;;;;;;;;;;1032799;28;2684;-54
2023/03/17 01:30:27;;;;;;;;;;;;;;;;;;1031599;28;3963;-52
2023/03/17 01:30:57;;;;;;;;;;;;;;;;;;1031803;28;2794;-52
2023/03/17 01:31:28;;;;;;;;;;;;;;;;;;1033496;28;3993;-54
2023/03/17 01:31:58;;;;;;;;;;;;;;;;;;1033695;28;1360;-55
2023/03/17 01:32:28;;;;;;;;;;;;;;;;;;1032649;28;3794;-53
2023/03/17 01:32:59;;;;;;;;;;;;;;;;;;1032036;28;3032;-52
2023/03/17 01:33:29;;;;;;;;;;;;;;;;;;1036132;28;3796;-54
2023/03/17 01:33:59;;;;;;;;;;;;;;;;;;1034928;28;1696;-54
2023/03/17 01:34:30;;;;;;;;;;;;;;;;;;1030893;28;4407;-55
2023/03/17 01:35:00;;;;;;;;;;;;;;;;;;1032638;28;2797;-53
2023/03/17 01:35:31;;;;;;;;;;;;;;;;;;1034661;28;3880;-54
2023/03/17 01:36:01;;;;;;;;;;;;;;;;;;1034628;28;1687;-51
2023/03/17 01:36:31;;;;;;;;;;;;;;;;;;1031234;28;4041;-53
2023/03/17 01:37:01;;;;;;;;;;;;;;;;;;1035171;28;2920;-55
2023/03/17 01:37:32;;;;;;;;;;;;;;;;;;1033295;28;3874;-54
2023/03/17 01:38:02;;;;;;;;;;;;;;;;;;1034979;28;1597;-54
2023/03/17 01:38:32;;;;;;;;;;;;;;;;;;1032442;28;4073;-53
2023/03/17 01:39:04;;;;;;;;;;;;;;;;;;1034578;28;2825;-52
2023/03/17 01:39:34;;;;;;;;;;;;;;;;;;1033280;28;3866;-55
2023/03/17 01:40:05;;;;;;;;;;;;;;;;;;1035833;28;1599;-54
2023/03/17 01:40:37;;;;;;;;;;;;;;;;;;1032925;28;3799;-54
2023/03/17 01:41:08;;;;;;;;;;;;;;;;;;1035730;28;1758;-54
2023/03/17 01:41:38;;;;;;;;;;;;;;;;;;1033799;28;4007;-55
2023/03/17 01:42:09;;;;;;;;;;;;;;;;;;1035842;28;1749;-53
2023/03/17 01:42:40;;;;;;;;;;;;;;;;;;1034383;28;3857;-51
2023/03/17 01:43:11;;;;;;;;;;;;;;;;;;1034631;28;1754;-55
2023/03/17 01:43:41;;;;;;;;;;;;;;;;;;1033729;28;4008;-54
2023/03/17 01:44:14;;;;;;;;;;;;;;;;;;1033019;28;2799;-53
2023/03/17 01:45:04;;;;;;;;;;;;;;;;;;1036031;28;4035;-54
2023/03/17 01:45:53;;;;;;;;;;;;;;;;;;1032741;28;4047;-55
2023/03/17 01:46:32;;;;;;;;;;;;;;;;;;1033580;28;4066;-53
2023/03/17 01:47:03;;;;;;;;;;;;;;;;;;1033964;28;3587;-54
2023/03/17 01:47:33;;;;;;;;;;;;;;;;;;1034267;28;4190;-51
2023/03/17 01:48:03;;;;;;;;;;;;;;;;;;1035632;28;1750;-54
2023/03/17 01:48:39;;;;;;;;;;;;;;;;;;1033750;28;3881;-54
2023/03/17 01:49:18;;;;;;;;;;;;;;;;;;1034583;28;2069;-54
2023/03/17 01:49:49;;;;;;;;;;;;;;;;;;1033575;28;3966;-55
2023/03/17 01:50:19;;;;;;;;;;;;;;;;;;1033215;28;3863;-53
2023/03/17 01:50:50;;;;;;;;;;;;;;;;;;1035576;28;1986;-52
2023/03/17 01:51:41;;;;;;;;;;;;;;;;;;1035358;28;3938;-54
2023/03/17 01:52:14;;;;;;;;;;;;;;;;;;1034720;28;1852;-52
2023/03/17 01:52:44;;;;;;;;;;;;;;;;;;1034425;28;3834;-54
2023/03/17 01:53:15;;;;;;;;;;;;;;;;;;1034599;28;2883;-52
2023/03/17 01:53:47;;;;;;;;;;;;;;;;;;1034069;28;3966;-55
2023/03/17 01:54:23;;;;;;;;;;;;;;;;;;1034029;28;4039;-55
2023/03/17 01:54:58;;;;;;;;;;;;;;;;;;1034885;28;2675;-55
2023/03/17 01:55:29;;;;;;;;;;;;;;;;;;1034684;28;3875;-55
2023/03/17 01:56:00;;;;;;;;;;;;;;;;;;1035929;28;1411;-52
2023/03/17 01:56:31;;;;;;;;;;;;;;;;;;1032185;28;3927;-52
2023/03/17 01:57:06;;;;;;;;;;;;;;;;;;1034508;28;3412;-54
2023/03/17 01:57:39;;;;;;;;;;;;;;;;;;1033267;28;4095;-55
2023/03/17 01:58:11;;;;;;;;;;;;;;;;;;1034623;28;2849;-54
2023/03/17 01:58:42;;;;;;;;;;;;;;;;;;1031874;28;3993;-54
2023/03/17 01:59:18;;;;;;;;;;;;;;;;;;1035570;28;2067;-54
2023/03/17 01:59:50;;;;;;;;;;;;;;;;;;1033484;28;3966;-55
2023/03/17 02:00:22;;;;;;;;;;;;;;;;;;1034378;28;4387;-55
2023/03/17 02:00:53;;;;;;;;;;;;;;;;;;1033619;28;1932;-54
2023/03/17 02:01:25;;;;;;;;;;;;;;;;;;1034992;28;3861;-54
2023/03/17 02:01:58;;;;;;;;;;;;;;;;;;1032302;28;2901;-53
2023/03/17 02:02:30;;;;;;;;;;;;;;;;;;1035142;28;4043;-55
2023/03/17 02:03:00;;;;;;;;;;;;;;;;;;1032960;28;1779;-54
2023/03/17 02:03:32;;;;;;;;;;;;;;;;;;1033669;28;3946;-54
2023/03/17 02:04:03;;;;;;;;;;;;;;;;;;1034934;28;2353;-55
2023/03/17 02:04:34;;;;;;;;;;;;;;;;;;1034809;28;4055;-56
2023/03/17 02:05:06;;;;;;;;;;;;;;;;;;1034984;28;1789;-52
2023/03/17 02:05:37;;;;;;;;;;;;;;;;;;1033755;28;3893;-55
2023/03/17 02:06:08;;;;;;;;;;;;;;;;;;1032338;28;2821;-54
2023/03/17 02:06:39;;;;;;;;;;;;;;;;;;1032121;28;3871;-52
2023/03/17 02:07:09;;;;;;;;;;;;;;;;;;1035209;28;1922;-52
2023/03/17 02:07:40;;;;;;;;;;;;;;;;;;1033981;28;4009;-53
2023/03/17 02:08:12;;;;;;;;;;;;;;;;;;1035142;28;3023;-55
2023/03/17 02:08:42;;;;;;;;;;;;;;;;;;1032915;28;4041;-52
2023/03/17 02:09:13;;;;;;;;;;;;;;;;;;1035674;28;1764;-51
2023/03/17 02:09:43;;;;;;;;;;;;;;;;;;1033647;28;3848;-54
2023/03/17 02:10:16;;;;;;;;;;;;;;;;;;1035559;28;2527;-53
2023/03/17 02:10:48;;;;;;;;;;;;;;;;;;1030539;28;4017;-53
2023/03/17 02:11:19;;;;;;;;;;;;;;;;;;1035823;28;3856;-52
2023/03/17 02:11:50;;;;;;;;;;;;;;;;;;1033442;28;2289;-53
2023/03/17 02:12:21;;;;;;;;;;;;;;;;;;1032496;28;3875;-52
2023/03/17 02:12:54;;;;;;;;;;;;;;;;;;1033787;28;1781;-52
2023/03/17 02:13:25;;;;;;;;;;;;;;;;;;1030350;28;5174;-53
2023/03/17 02:13:56;;;;;;;;;;;;;;;;;;1036232;28;2794;-54
2023/03/17 02:14:27;;;;;;;;;;;;;;;;;;1034369;28;3878;-56
2023/03/17 02:14:57;;;;;;;;;;;;;;;;;;1034626;28;1775;-55
2023/03/17 02:15:45;;;;;;;;;;;;;;;;;;1031807;28;4082;-52
2023/03/17 02:16:16;;;;;;;;;;;;;;;;;;1034020;28;1920;-52
2023/03/17 02:16:47;;;;;;;;;;;;;;;;;;1034391;28;3720;-53
2023/03/17 02:17:18;;;;;;;;;;;;;;;;;;1032042;28;4496;-54
2023/03/17 02:17:49;;;;;;;;;;;;;;;;;;1034867;28;3109;-52
2023/03/17 02:18:20;;;;;;;;;;;;;;;;;;1033110;28;4052;-52
2023/03/17 02:18:51;;;;;;;;;;;;;;;;;;1032683;28;2695;-54
2023/03/17 02:19:22;;;;;;;;;;;;;;;;;;1034692;28;4070;-53
2023/03/17 02:19:53;;;;;;;;;;;;;;;;;;1035612;28;1778;-54
2023/03/17 02:20:23;;;;;;;;;;;;;;;;;;1033757;28;4094;-53
2023/03/17 02:20:56;;;;;;;;;;;;;;;;;;1033789;28;1886;-54
2023/03/17 02:21:26;;;;;;;;;;;;;;;;;;1032899;28;3811;-54
2023/03/17 02:21:57;;;;;;;;;;;;;;;;;;1034499;28;2920;-54
2023/03/17 02:22:27;;;;;;;;;;;;;;;;;;1034937;28;3937;-55
2023/03/17 02:22:59;;;;;;;;;;;;;;;;;;1033956;28;1738;-53
2023/03/17 02:23:29;;;;;;;;;;;;;;;;;;1032089;28;3937;-54
2023/03/17 02:24:01;;;;;;;;;;;;;;;;;;1034866;28;2870;-54
2023/03/17 02:24:31;;;;;;;;;;;;;;;;;;1031965;28;3870;-54
2023/03/17 02:25:01;;;;;;;;;;;;;;;;;;1033547;28;2919;-56
2023/03/17 02:25:33;;;;;;;;;;;;;;;;;;1032305;28;3770;-54
2023/03/17 02:26:04;;;;;;;;;;;;;;;;;;1034635;28;2451;-54
2023/03/17 02:26:34;;;;;;;;;;;;;;;;;;1032707;28;3852;-56
2023/03/17 02:27:16;;;;;;;;;;;;;;;;;;1033938;28;2897;-53
2023/03/17 02:27:51;;;;;;;;;;;;;;;;;;1032731;28;3925;-55
2023/03/17 02:28:26;;;;;;;;;;;;;;;;;;1034325;28;3951;-54
2023/03/17 02:28:57;;;;;;;;;;;;;;;;;;1032095;28;2770;-54
2023/03/17 02:29:27;;;;;;;;;;;;;;;;;;1032380;28;3884;-55
2023/03/17 02:29:58;;;;;;;;;;;;;;;;;;1032474;28;3720;-54
2023/03/17 02:30:28;;;;;;;;;;;;;;;;;;1032189;28;4085;-54
2023/03/17 02:30:59;;;;;;;;;;;;;;;;;;1033562;28;2665;-54
2023/03/17 02:31:29;;;;;;;;;;;;;;;;;;1032125;28;3890;-55
2023/03/17 02:32:00;;;;;;;;;;;;;;;;;;1035421;28;1831;-55
2023/03/17 02:32:34;;;;;;;;;;;;;;;;;;1032173;28;4002;-54
2023/03/17 02:33:04;;;;;;;;;;;;;;;;;;1034541;28;1763;-52
2023/03/17 02:33:35;;;;;;;;;;;;;;;;;;1032860;28;4040;-55
2023/03/17 02:34:05;;;;;;;;;;;;;;;;;;1035221;28;1781;-54
2023/03/17 02:34:36;;;;;;;;;;;;;;;;;;1031481;28;3885;-53
2023/03/17 02:35:07;;;;;;;;;;;;;;;;;;1035507;28;2080;-54
2023/03/17 02:35:37;;;;;;;;;;;;;;;;;;1032471;28;3888;-55
2023/03/17 02:36:09;;;;;;;;;;;;;;;;;;1034123;28;1951;-55
2023/03/17 02:36:40;;;;;;;;;;;;;;;;;;1032733;28;4247;-54
2023/03/17 02:37:10;;;;;;;;;;;;;;;;;;1035085;28;2733;-53
2023/03/17 02:37:42;;;;;;;;;;;;;;;;;;1031716;28;4082;-51
2023/03/17 02:38:12;;;;;;;;;;;;;;;;;;1032233;28;2715;-55
2023/03/17 02:38:43;;;;;;;;;;;;;;;;;;1034865;28;3971;-55
2023/03/17 02:39:13;;;;;;;;;;;;;;;;;;1034167;28;1782;-54
2023/03/17 02:39:43;;;;;;;;;;;;;;;;;;1034536;28;3982;-54
2023/03/17 02:40:14;;;;;;;;;;;;;;;;;;1031993;28;2775;-53
2023/03/17 02:40:44;;;;;;;;;;;;;;;;;;1032787;28;3972;-55
2023/03/17 02:41:15;;;;;;;;;;;;;;;;;;1033022;28;2768;-54
2023/03/17 02:41:46;;;;;;;;;;;;;;;;;;1035623;28;3951;-55
2023/03/17 02:42:16;;;;;;;;;;;;;;;;;;1033491;28;2422;-55
2023/03/17 02:42:46;;;;;;;;;;;;;;;;;;1034080;28;4195;-52
2023/03/17 02:43:17;;;;;;;;;;;;;;;;;;1033624;28;2763;-55
2023/03/17 02:43:47;;;;;;;;;;;;;;;;;;1034406;28;3923;-54
2023/03/17 02:44:17;;;;;;;;;;;;;;;;;;1034839;28;4057;-55
2023/03/17 02:44:48;;;;;;;;;;;;;;;;;;1032633;28;1801;-55
2023/03/17 02:45:19;;;;;;;;;;;;;;;;;;1031861;28;4234;-52
2023/03/17 02:45:49;;;;;;;;;;;;;;;;;;1034868;28;1964;-51
2023/03/17 02:46:20;;;;;;;;;;;;;;;;;;1033330;28;4645;-55
2023/03/17 02:46:50;;;;;;;;;;;;;;;;;;1033176;28;1623;-52
2023/03/17 02:47:21;;;;;;;;;;;;;;;;;;1034352;28;4075;-56
2023/03/17 02:47:51;;;;;;;;;;;;;;;;;;1032416;28;2474;-54
2023/03/17 02:48:22;;;;;;;;;;;;;;;;;;1033274;28;3800;-52
2023/03/17 02:48:53;;;;;;;;;;;;;;;;;;1033974;28;1746;-52
2023/03/17 02:49:24;;;;;;;;;;;;;;;;;;1034890;28;4088;-53
2023/03/17 02:49:54;;;;;;;;;;;;;;;;;;1033362;28;2735;-53
2023/03/17 02:50:27;;;;;;;;;;;;;;;;;;1032844;28;3924;-53
2023/03/17 02:50:57;;;;;;;;;;;;;;;;;;1034099;28;1808;-54
2023/03/17 02:51:28;;;;;;;;;;;;;;;;;;1035066;28;4428;-54
2023/03/17 02:51:58;;;;;;;;;;;;;;;;;;1035195;28;1629;-55
2023/03/17 02:52:28;;;;;;;;;;;;;;;;;;1033675;28;3998;-53
2023/03/17 02:52:59;;;;;;;;;;;;;;;;;;1033718;28;3082;-54
2023/03/17 02:53:29;;;;;;;;;;;;;;;;;;1033870;28;4046;-53
2023/03/17 02:54:00;;;;;;;;;;;;;;;;;;1035709;28;1694;-54
2023/03/17 02:54:30;;;;;;;;;;;;;;;;;;1032235;28;4060;-53
2023/03/17 02:55:01;;;;;;;;;;;;;;;;;;1034354;28;2732;-54
2023/03/17 02:55:31;;;;;;;;;;;;;;;;;;1033772;28;3932;-55
2023/03/17 02:56:01;;;;;;;;;;;;;;;;;;1035578;28;2972;-52
2023/03/17 02:56:32;;;;;;;;;;;;;;;;;;1033166;28;4043;-56
2023/03/17 02:57:02;;;;;;;;;;;;;;;;;;1034528;28;1601;-55
2023/03/17 02:57:33;;;;;;;;;;;;;;;;;;1034497;28;3904;-54
2023/03/17 02:58:03;;;;;;;;;;;;;;;;;;1035671;28;1795;-52
2023/03/17 02:58:33;;;;;;;;;;;;;;;;;;1034490;28;4027;-54
2023/03/17 02:59:04;;;;;;;;;;;;;;;;;;1033634;28;1793;-53
2023/03/17 02:59:36;;;;;;;;;;;;;;;;;;1036775;28;4183;-55
2023/03/17 03:00:09;;;;;;;;;;;;;;;;;;1037661;28;2535;-54
2023/03/17 03:00:39;;;;;;;;;;;;;;;;;;1038387;28;3940;-52
2023/03/17 03:01:10;;;;;;;;;;;;;;;;;;1038533;28;1873;-54
2023/03/17 03:01:41;;;;;;;;;;;;;;;;;;1036925;28;4244;-54
2023/03/17 03:02:11;;;;;;;;;;;;;;;;;;1038193;28;2856;-52
2023/03/17 03:02:41;;;;;;;;;;;;;;;;;;1039120;28;3912;-52
2023/03/17 03:03:12;;;;;;;;;;;;;;;;;;1036973;28;2678;-54
2023/03/17 03:03:42;;;;;;;;;;;;;;;;;;1037194;28;4005;-55
2023/03/17 03:04:13;;;;;;;;;;;;;;;;;;1038651;28;1984;-52
2023/03/17 03:04:43;;;;;;;;;;;;;;;;;;1039236;28;3967;-55
2023/03/17 03:05:13;;;;;;;;;;;;;;;;;;1038463;28;1788;-52
2023/03/17 03:05:44;;;;;;;;;;;;;;;;;;1036782;28;3825;-54
2023/03/17 03:06:15;;;;;;;;;;;;;;;;;;1038789;28;2413;-54
2023/03/17 03:06:46;;;;;;;;;;;;;;;;;;1038717;28;3994;-56
2023/03/17 03:07:16;;;;;;;;;;;;;;;;;;1036864;28;2627;-56
2023/03/17 03:07:47;;;;;;;;;;;;;;;;;;1037097;28;3878;-54
2023/03/17 03:08:17;;;;;;;;;;;;;;;;;;1036458;28;4089;-54
2023/03/17 03:08:47;;;;;;;;;;;;;;;;;;1039140;28;1762;-54
2023/03/17 03:09:18;;;;;;;;;;;;;;;;;;1034900;28;4055;-56
2023/03/17 03:09:48;;;;;;;;;;;;;;;;;;1036348;28;2793;-56
2023/03/17 03:10:19;;;;;;;;;;;;;;;;;;1038796;28;4158;-53
2023/03/17 03:10:49;;;;;;;;;;;;;;;;;;1036657;28;2784;-54
2023/03/17 03:11:19;;;;;;;;;;;;;;;;;;1036045;28;4138;-55
2023/03/17 03:11:50;;;;;;;;;;;;;;;;;;1036751;28;3447;-54
2023/03/17 03:12:20;;;;;;;;;;;;;;;;;;1039249;28;4080;-54
2023/03/17 03:12:50;;;;;;;;;;;;;;;;;;1038352;28;1687;-55
2023/03/17 03:13:21;;;;;;;;;;;;;;;;;;1037221;28;3887;-52
2023/03/17 03:13:52;;;;;;;;;;;;;;;;;;1035876;28;3225;-55
2023/03/17 03:14:22;;;;;;;;;;;;;;;;;;1037956;28;3906;-56
2023/03/17 03:14:52;;;;;;;;;;;;;;;;;;1038599;28;3072;-51
2023/03/17 03:15:23;;;;;;;;;;;;;;;;;;1035247;28;4451;-54
2023/03/17 03:15:53;;;;;;;;;;;;;;;;;;1038798;28;2300;-54
2023/03/17 03:16:23;;;;;;;;;;;;;;;;;;1036639;28;4093;-54
2023/03/17 03:16:53;;;;;;;;;;;;;;;;;;1038945;28;1715;-54
2023/03/17 03:17:24;;;;;;;;;;;;;;;;;;1036258;28;4128;-53
2023/03/17 03:17:54;;;;;;;;;;;;;;;;;;1040268;28;1792;-52
2023/03/17 03:18:25;;;;;;;;;;;;;;;;;;1036452;28;4065;-54
2023/03/17 03:18:55;;;;;;;;;;;;;;;;;;1036688;28;2787;-54
2023/03/17 03:19:25;;;;;;;;;;;;;;;;;;1037450;28;4057;-55
2023/03/17 03:19:55;;;;;;;;;;;;;;;;;;1038354;28;1903;-51
2023/03/17 03:20:26;;;;;;;;;;;;;;;;;;1037466;28;3888;-55
2023/03/17 03:20:56;;;;;;;;;;;;;;;;;;1035532;28;2676;-53
2023/03/17 03:21:27;;;;;;;;;;;;;;;;;;1036310;28;3918;-55
2023/03/17 03:21:57;;;;;;;;;;;;;;;;;;1038597;28;1713;-56
2023/03/17 03:22:27;;;;;;;;;;;;;;;;;;1039154;28;4104;-53
2023/03/17 03:22:58;;;;;;;;;;;;;;;;;;1037893;28;2601;-54
2023/03/17 03:23:28;;;;;;;;;;;;;;;;;;1038304;28;4057;-56
2023/03/17 03:23:58;;;;;;;;;;;;;;;;;;1040191;28;1996;-53
2023/03/17 03:24:28;;;;;;;;;;;;;;;;;;1037105;28;4053;-53
2023/03/17 03:24:59;;;;;;;;;;;;;;;;;;1037365;28;2452;-52
2023/03/17 03:25:29;;;;;;;;;;;;;;;;;;1036815;28;3910;-53
2023/03/17 03:25:59;;;;;;;;;;;;;;;;;;1039049;28;1844;-53
2023/03/17 03:26:30;;;;;;;;;;;;;;;;;;1037609;28;4059;-54
2023/03/17 03:27:01;;;;;;;;;;;;;;;;;;1038583;28;3002;-55
2023/03/17 03:27:31;;;;;;;;;;;;;;;;;;1038253;28;4021;-54
2023/03/17 03:28:01;;;;;;;;;;;;;;;;;;1038491;28;1891;-52
2023/03/17 03:28:32;;;;;;;;;;;;;;;;;;1035530;28;4050;-53
2023/03/17 03:29:02;;;;;;;;;;;;;;;;;;1038101;28;2814;-55
2023/03/17 03:29:33;;;;;;;;;;;;;;;;;;1035523;28;4048;-55
2023/03/17 03:30:06;;;;;;;;;;;;;;;;;;1038056;28;1799;-55
2023/03/17 03:30:36;;;;;;;;;;;;;;;;;;1038594;28;4042;-55
2023/03/17 03:31:07;;;;;;;;;;;;;;;;;;1037387;28;2648;-55
2023/03/17 03:31:37;;;;;;;;;;;;;;;;;;1037416;28;3941;-56
2023/03/17 03:32:07;;;;;;;;;;;;;;;;;;1036616;28;2697;-54
2023/03/17 03:32:37;;;;;;;;;;;;;;;;;;1036468;28;4138;-54
2023/03/17 03:33:11;;;;;;;;;;;;;;;;;;1036863;28;3060;-54
2023/03/17 03:33:42;;;;;;;;;;;;;;;;;;1038446;28;3735;-52
2023/03/17 03:34:12;;;;;;;;;;;;;;;;;;1038744;28;1834;-52
2023/03/17 03:34:42;;;;;;;;;;;;;;;;;;1037115;28;3754;-54
2023/03/17 03:35:12;;;;;;;;;;;;;;;;;;1036535;28;2802;-53
2023/03/17 03:35:43;;;;;;;;;;;;;;;;;;1039115;28;3967;-56
2023/03/17 03:36:13;;;;;;;;;;;;;;;;;;1038693;28;1802;-55
2023/03/17 03:36:44;;;;;;;;;;;;;;;;;;1038232;28;4030;-55
2023/03/17 03:37:14;;;;;;;;;;;;;;;;;;1037605;28;3100;-53
2023/03/17 03:37:44;;;;;;;;;;;;;;;;;;1039130;28;3809;-53